createdAt,value
2019-06-10T00:02:23.636Z,10.63
2019-06-10T00:04:50.876Z,10.75
2019-06-10T00:07:17.830Z,10.30
2019-06-10T00:09:45.088Z,10.25
2019-06-10T00:12:12.790Z,10.02
2019-06-10T00:14:41.645Z,10.65
2019-06-10T00:17:10.784Z,10.82
2019-06-10T00:19:36.457Z,10.70
2019-06-10T00:22:04.121Z,10.23
2019-06-10T00:24:31.505Z,9.73
2019-06-10T00:26:58.008Z,9.70
2019-06-10T00:29:25.062Z,10.05
2019-06-10T00:31:52.105Z,10.32
2019-06-10T00:34:20.932Z,10.02
2019-06-10T00:36:46.408Z,9.98
2019-06-10T00:39:13.804Z,10.40
2019-06-10T00:41:42.645Z,10.27
2019-06-10T00:44:08.406Z,10.15
2019-06-10T00:46:36.552Z,9.75
2019-06-10T00:49:05.593Z,10.52
2019-06-10T00:51:31.394Z,10.02
2019-06-10T00:53:58.109Z,10.50
2019-06-10T00:56:25.156Z,10.23
2019-06-10T00:58:52.308Z,10.27
2019-06-10T01:01:21.756Z,9.57
2019-06-10T01:03:46.505Z,8.98
2019-06-10T01:06:15.079Z,9.77
2019-06-10T01:08:41.213Z,10.07
2019-06-10T01:11:12.511Z,10.20
2019-06-10T01:13:35.831Z,9.27
2019-06-10T01:16:03.437Z,9.25
2019-06-10T01:18:35.652Z,9.73
2019-06-10T01:20:57.691Z,10.23
2019-06-10T01:23:24.735Z,9.15
2019-06-10T01:25:51.783Z,9.80
2019-06-10T01:28:21.810Z,9.43
2019-06-10T01:30:46.352Z,9.18
2019-06-10T01:33:14.852Z,8.75
2019-06-10T01:35:41.497Z,9.27
2019-06-10T01:38:08.152Z,9.00
2019-06-10T01:40:35.207Z,9.38
2019-06-10T01:43:02.250Z,8.85
2019-06-10T01:45:31.244Z,9.10
2019-06-10T01:47:56.456Z,9.35
2019-06-10T01:50:23.503Z,9.20
2019-06-10T01:52:51.575Z,9.60
2019-06-10T01:55:18.258Z,9.30
2019-06-10T01:57:44.850Z,9.20
2019-06-10T02:00:17.042Z,9.07
2019-06-10T02:02:43.983Z,9.18
2019-06-10T02:05:08.407Z,9.55
2019-06-10T02:07:34.484Z,9.68
2019-06-10T02:10:01.635Z,9.57
2019-06-10T02:12:31.331Z,9.45
2019-06-10T02:14:55.828Z,9.70
2019-06-10T02:17:23.956Z,10.23
2019-06-10T02:19:50.858Z,9.82
2019-06-10T02:22:18.529Z,9.75
2019-06-10T02:24:44.330Z,10.00
2019-06-10T02:27:13.257Z,9.85
2019-06-10T02:29:38.536Z,8.65
2019-06-10T02:32:05.599Z,9.65
2019-06-10T02:34:36.559Z,9.50
2019-06-10T02:36:59.892Z,9.95
2019-06-10T02:39:33.758Z,10.10
2019-06-10T02:41:56.044Z,10.13
2019-06-10T02:44:32.254Z,9.80
2019-06-10T02:46:54.189Z,9.75
2019-06-10T02:49:29.732Z,10.18
2019-06-10T02:54:31.267Z,9.50
2019-06-10T02:56:54.001Z,9.70
2019-06-10T02:59:26.623Z,9.90
2019-06-10T03:01:47.982Z,9.15
2019-06-10T03:04:16.285Z,9.30
2019-06-10T03:06:44.834Z,9.60
2019-06-10T03:09:10.355Z,9.52
2019-06-10T03:11:37.921Z,9.80
2019-06-10T03:14:04.943Z,8.75
2019-06-10T03:16:33.078Z,8.95
2019-06-10T03:19:00.085Z,9.30
2019-06-10T03:21:28.540Z,9.02
2019-06-10T03:23:55.212Z,8.95
2019-06-10T03:26:25.415Z,8.55
2019-06-10T03:28:52.059Z,9.50
2019-06-10T03:31:18.860Z,8.82
2019-06-10T03:33:47.683Z,9.07
2019-06-10T03:36:16.181Z,8.25
2019-06-10T03:38:43.307Z,8.25
2019-06-10T03:41:12.263Z,8.13
2019-06-10T03:43:36.920Z,8.02
2019-06-10T03:46:03.969Z,8.38
2019-06-10T03:48:32.917Z,7.97
2019-06-10T03:50:58.890Z,8.13
2019-06-10T03:53:26.959Z,7.45
2019-06-10T03:55:53.098Z,7.20
2019-06-10T03:58:24.631Z,7.40
2019-06-10T04:00:48.932Z,7.57
2019-06-10T04:03:17.269Z,7.47
2019-06-10T04:05:43.127Z,7.37
2019-06-10T04:08:12.464Z,7.30
2019-06-10T04:10:37.426Z,7.25
2019-06-10T04:13:04.480Z,6.90
2019-06-10T04:15:32.509Z,7.65
2019-06-10T04:18:03.655Z,7.85
2019-06-10T04:20:29.445Z,7.40
2019-06-10T04:22:56.360Z,7.47
2019-06-10T04:25:26.642Z,7.80
2019-06-10T04:27:52.387Z,7.82
2019-06-10T04:30:19.986Z,7.93
2019-06-10T04:32:46.086Z,7.78
2019-06-10T04:35:13.146Z,7.12
2019-06-10T04:37:42.616Z,7.30
2019-06-10T04:40:07.435Z,7.40
2019-06-10T04:42:34.491Z,7.43
2019-06-10T04:45:03.190Z,7.47
2019-06-10T04:47:29.669Z,7.50
2019-06-10T04:49:56.757Z,6.87
2019-06-10T04:52:25.153Z,6.97
2019-06-10T04:54:52.715Z,7.62
2019-06-10T04:57:18.799Z,6.55
2019-06-10T04:59:45.260Z,7.47
2019-06-10T05:02:12.810Z,7.47
2019-06-10T05:04:39.464Z,7.37
2019-06-10T05:07:06.507Z,7.30
2019-06-10T05:09:33.724Z,7.00
2019-06-10T05:12:02.727Z,7.53
2019-06-10T05:14:43.113Z,8.52
2019-06-10T05:17:08.219Z,7.37
2019-06-10T05:19:35.274Z,7.62
2019-06-10T05:22:03.106Z,7.25
2019-06-10T05:24:34.065Z,6.90
2019-06-10T05:26:57.846Z,8.00
2019-06-10T05:29:27.756Z,7.82
2019-06-10T05:31:52.326Z,7.00
2019-06-10T05:34:20.378Z,7.43
2019-06-10T05:36:46.451Z,7.45
2019-06-10T05:39:13.603Z,7.15
2019-06-10T05:41:43.045Z,7.15
2019-06-10T05:44:07.803Z,7.40
2019-06-10T05:46:35.126Z,7.62
2019-06-10T05:49:03.136Z,7.82
2019-06-10T05:51:29.158Z,8.07
2019-06-10T05:53:56.202Z,7.57
2019-06-10T05:56:23.816Z,7.40
2019-06-10T05:58:52.280Z,7.60
2019-06-10T06:01:17.552Z,8.05
2019-06-10T06:03:44.607Z,7.53
2019-06-10T06:06:12.483Z,7.50
2019-06-10T06:08:38.762Z,8.05
2019-06-10T06:11:05.857Z,7.62
2019-06-10T06:13:35.822Z,8.43
2019-06-10T06:16:00.055Z,8.30
2019-06-10T06:18:27.907Z,8.50
2019-06-10T06:20:54.259Z,9.45
2019-06-10T06:23:23.141Z,9.55
2019-06-10T06:25:48.552Z,9.68
2019-06-10T06:28:16.313Z,8.48
2019-06-10T06:30:43.527Z,8.77
2019-06-10T06:33:13.344Z,10.18
2019-06-10T06:35:42.515Z,8.90
2019-06-10T06:38:06.661Z,8.52
2019-06-10T06:40:35.645Z,8.90
2019-06-10T06:43:02.733Z,8.60
2019-06-10T06:45:27.975Z,9.40
2019-06-10T06:47:55.082Z,8.93
2019-06-10T06:50:25.489Z,8.85
2019-06-10T06:53:19.016Z,8.50
2019-06-10T06:55:16.517Z,8.35
2019-06-10T06:57:43.664Z,8.40
2019-06-10T07:00:35.262Z,8.80
2019-06-10T07:02:38.767Z,8.77
2019-06-10T07:05:06.654Z,9.43
2019-06-10T07:07:35.676Z,9.35
2019-06-10T07:10:03.203Z,9.52
2019-06-10T07:12:28.106Z,9.02
2019-06-10T07:14:55.156Z,9.88
2019-06-10T07:17:22.745Z,9.70
2019-06-10T07:19:49.359Z,9.35
2019-06-10T07:22:16.545Z,10.40
2019-06-10T07:24:47.417Z,9.85
2019-06-10T07:27:12.972Z,10.73
2019-06-10T07:29:40.246Z,11.10
2019-06-10T07:32:05.008Z,11.07
2019-06-10T07:34:33.950Z,11.52
2019-06-10T07:36:59.273Z,11.12
2019-06-10T07:39:26.360Z,10.60
2019-06-10T07:41:53.510Z,10.43
2019-06-10T07:44:22.499Z,11.00
2019-06-10T07:46:47.811Z,10.85
2019-06-10T07:49:14.866Z,10.15
2019-06-10T07:51:44.600Z,9.73
2019-06-10T07:54:09.167Z,10.00
2019-06-10T07:56:40.526Z,10.50
2019-06-10T07:59:04.600Z,10.93
2019-06-10T08:01:33.329Z,10.82
2019-06-10T08:03:58.790Z,9.73
2019-06-10T08:06:25.844Z,10.27
2019-06-10T08:08:53.325Z,9.60
2019-06-10T08:11:22.650Z,9.40
2019-06-10T08:13:48.071Z,9.95
2019-06-10T08:16:14.508Z,9.77
2019-06-10T08:19:11.190Z,10.35
2019-06-10T08:21:12.092Z,10.07
2019-06-10T08:23:38.472Z,10.43
2019-06-10T08:26:04.280Z,10.15
2019-06-10T08:28:33.308Z,10.15
2019-06-10T08:30:58.583Z,10.38
2019-06-10T08:33:25.633Z,9.68
2019-06-10T08:35:59.428Z,10.07
2019-06-10T08:38:20.235Z,9.93
2019-06-10T08:40:48.518Z,9.77
2019-06-10T08:43:14.402Z,10.40
2019-06-10T08:45:43.716Z,9.75
2019-06-10T08:48:08.738Z,10.10
2019-06-10T08:50:37.503Z,10.13
2019-06-10T08:53:13.873Z,10.18
2019-06-10T08:55:33.343Z,9.98
2019-06-10T08:57:58.474Z,10.20
2019-06-10T09:00:26.334Z,10.38
2019-06-10T09:02:53.999Z,9.70
2019-06-10T09:05:23.057Z,8.35
2019-06-10T09:07:50.012Z,9.43
2019-06-10T09:10:15.263Z,10.20
2019-06-10T09:12:46.035Z,9.43
2019-06-10T09:15:13.053Z,9.25
2019-06-10T09:17:56.568Z,10.73
2019-06-10T09:20:44.923Z,9.07
2019-06-10T09:23:20.986Z,9.45
2019-06-10T09:25:37.272Z,8.98
2019-06-10T09:28:04.424Z,8.88
2019-06-10T09:30:33.407Z,9.55
2019-06-10T09:33:01.571Z,8.90
2019-06-10T09:35:26.086Z,9.00
2019-06-10T09:37:55.668Z,8.13
2019-06-10T09:40:22.761Z,8.43
2019-06-10T09:42:50.621Z,8.18
2019-06-10T09:45:14.789Z,8.70
2019-06-10T09:47:45.606Z,7.90
2019-06-10T09:50:12.131Z,8.15
2019-06-10T09:52:37.368Z,8.13
2019-06-10T09:55:05.234Z,7.75
2019-06-10T09:57:32.296Z,8.15
2019-06-10T09:59:59.341Z,8.05
2019-06-10T10:02:26.344Z,7.45
2019-06-10T10:04:58.381Z,8.02
2019-06-10T10:07:22.688Z,7.32
2019-06-10T10:09:56.603Z,7.87
2019-06-10T10:12:22.708Z,7.15
2019-06-10T10:14:51.399Z,7.55
2019-06-10T10:17:16.119Z,7.53
2019-06-10T10:19:45.473Z,7.72
2019-06-10T10:22:13.988Z,7.35
2019-06-10T10:24:42.925Z,7.85
2019-06-10T10:27:09.494Z,6.82
2019-06-10T10:29:35.076Z,7.07
2019-06-10T10:32:03.087Z,7.35
2019-06-10T10:34:33.313Z,6.95
2019-06-10T10:37:02.737Z,7.15
2019-06-10T10:39:27.982Z,6.85
2019-06-10T10:41:57.072Z,7.30
2019-06-10T10:44:40.810Z,6.87
2019-06-10T10:47:08.386Z,7.93
2019-06-10T10:49:36.042Z,7.57
2019-06-10T10:52:03.397Z,7.50
2019-06-10T10:54:35.991Z,7.53
2019-06-10T10:56:59.382Z,8.50
2019-06-10T10:59:26.489Z,8.50
2019-06-10T11:01:53.771Z,8.20
2019-06-10T11:04:22.634Z,8.35
2019-06-10T11:06:49.616Z,7.32
2019-06-10T11:09:17.244Z,7.32
2019-06-10T11:11:45.743Z,8.15
2019-06-10T11:14:14.927Z,8.30
2019-06-10T11:16:40.039Z,7.65
2019-06-10T11:19:08.396Z,8.40
2019-06-10T11:21:36.178Z,8.40
2019-06-10T11:24:05.657Z,7.43
2019-06-10T11:26:33.958Z,7.82
2019-06-10T11:29:03.078Z,8.02
2019-06-10T11:31:30.102Z,7.87
2019-06-10T11:33:59.104Z,8.20
2019-06-10T11:36:26.658Z,8.07
2019-06-10T11:38:57.468Z,8.68
2019-06-10T11:41:23.829Z,7.78
2019-06-10T11:43:56.060Z,7.68
2019-06-10T11:46:20.997Z,8.30
2019-06-10T11:48:49.124Z,8.20
2019-06-10T11:51:17.472Z,8.07
2019-06-10T11:53:47.400Z,8.00
2019-06-10T11:56:16.281Z,8.43
2019-06-10T11:58:44.744Z,8.10
2019-06-10T12:01:13.492Z,8.30
2019-06-10T12:03:43.064Z,7.07
2019-06-10T12:06:09.781Z,7.62
2019-06-10T12:08:39.289Z,8.75
2019-06-10T12:11:07.033Z,8.57
2019-06-10T12:13:34.820Z,7.80
2019-06-10T12:18:29.115Z,7.78
2019-06-10T12:20:59.632Z,7.07
2019-06-10T12:23:25.877Z,8.10
2019-06-10T12:25:56.222Z,7.28
2019-06-10T12:28:22.251Z,7.22
2019-06-10T12:30:51.213Z,7.03
2019-06-10T12:33:21.453Z,8.68
2019-06-10T12:35:44.195Z,7.65
2019-06-10T12:38:13.836Z,7.20
2019-06-10T12:40:39.113Z,7.68
2019-06-10T12:43:07.088Z,7.45
2019-06-10T12:45:33.488Z,7.93
2019-06-10T12:48:04.631Z,8.30
2019-06-10T12:50:28.334Z,7.60
2019-06-10T12:52:56.485Z,7.57
2019-06-10T12:55:38.419Z,7.55
2019-06-10T12:57:52.345Z,7.70
2019-06-10T13:00:23.801Z,7.57
2019-06-10T13:02:47.277Z,7.10
2019-06-10T13:05:14.980Z,7.75
2019-06-10T13:07:42.986Z,7.53
2019-06-10T13:10:12.016Z,8.52
2019-06-10T13:12:38.111Z,8.23
2019-06-10T13:15:08.413Z,8.00
2019-06-10T13:17:34.061Z,7.72
2019-06-10T13:20:04.764Z,7.55
2019-06-10T13:22:29.477Z,7.85
2019-06-10T13:27:42.701Z,7.65
2019-06-10T13:30:08.381Z,7.60
2019-06-10T13:32:35.758Z,7.07
2019-06-10T13:35:04.409Z,7.20
2019-06-10T13:37:32.170Z,7.28
2019-06-10T13:39:59.444Z,6.53
2019-06-10T13:42:27.924Z,7.35
2019-06-10T13:44:55.715Z,6.72
2019-06-10T13:47:26.065Z,6.43
2019-06-10T13:49:53.275Z,7.32
2019-06-10T13:52:20.380Z,6.53
2019-06-10T13:54:48.708Z,6.57
2019-06-10T13:57:18.344Z,6.50
2019-06-10T13:59:46.692Z,6.55
2019-06-10T14:02:15.030Z,6.37
2019-06-10T14:04:44.781Z,6.07
2019-06-10T14:07:17.389Z,6.15
2019-06-10T14:09:41.725Z,5.93
2019-06-10T14:12:12.488Z,6.10
2019-06-10T14:14:37.129Z,5.80
2019-06-10T14:17:05.489Z,6.53
2019-06-10T14:19:32.502Z,6.22
2019-06-10T14:22:01.987Z,5.57
2019-06-10T14:24:27.991Z,4.90
2019-06-10T14:26:56.131Z,5.40
2019-06-10T14:29:23.395Z,5.95
2019-06-10T14:31:53.232Z,5.82
2019-06-10T14:34:22.462Z,6.20
2019-06-10T14:36:52.354Z,5.20
2019-06-10T14:39:17.654Z,5.57
2019-06-10T14:41:45.112Z,5.82
2019-06-10T14:44:17.202Z,5.35
2019-06-10T14:46:42.485Z,5.20
2019-06-10T14:49:09.030Z,5.62
2019-06-10T14:51:36.302Z,5.80
2019-06-10T14:54:04.945Z,5.00
2019-06-10T14:56:33.173Z,5.12
2019-06-10T14:58:58.548Z,5.68
2019-06-10T15:01:26.136Z,4.82
2019-06-10T15:03:55.306Z,6.12
2019-06-10T15:06:43.209Z,5.47
2019-06-10T15:09:11.487Z,4.60
2019-06-10T15:11:37.872Z,4.80
2019-06-10T15:14:05.000Z,4.87
2019-06-10T15:16:33.660Z,4.53
2019-06-10T15:19:11.966Z,5.10
2019-06-10T15:21:26.636Z,4.95
2019-06-10T15:23:53.668Z,4.87
2019-06-10T15:26:20.756Z,4.80
2019-06-10T15:28:47.810Z,4.62
2019-06-10T15:31:16.369Z,4.80
2019-06-10T15:33:43.083Z,5.07
2019-06-10T15:36:09.361Z,4.20
2019-06-10T15:38:37.235Z,4.20
2019-06-10T15:41:04.484Z,4.28
2019-06-10T15:43:33.108Z,4.53
2019-06-10T15:45:58.964Z,4.15
2019-06-10T15:48:26.147Z,4.28
2019-06-10T15:50:53.266Z,4.78
2019-06-10T15:53:21.556Z,4.40
2019-06-10T15:56:10.313Z,4.40
2019-06-10T15:58:16.026Z,4.32
2019-06-10T16:00:44.957Z,4.20
2019-06-10T16:03:14.327Z,4.70
2019-06-10T16:05:39.193Z,4.18
2019-06-10T16:08:06.313Z,4.20
2019-06-10T16:10:33.467Z,4.15
2019-06-10T16:13:03.222Z,4.30
2019-06-10T16:15:27.767Z,4.47
2019-06-10T16:17:56.536Z,3.95
2019-06-10T16:20:23.654Z,4.25
2019-06-10T16:22:52.406Z,4.45
2019-06-10T16:25:18.114Z,4.30
2019-06-10T16:27:50.934Z,4.10
2019-06-10T16:30:13.134Z,4.50
2019-06-10T16:32:40.083Z,4.28
2019-06-10T16:35:07.237Z,3.83
2019-06-10T16:37:34.384Z,4.35
2019-06-10T16:40:03.301Z,4.12
2019-06-10T16:42:28.743Z,4.00
2019-06-10T16:44:55.836Z,3.92
2019-06-10T16:47:25.510Z,4.32
2019-06-10T16:49:52.209Z,4.50
2019-06-10T16:52:17.444Z,4.62
2019-06-10T16:54:45.360Z,4.72
2019-06-10T16:57:12.511Z,4.07
2019-06-10T16:59:39.557Z,4.15
2019-06-10T17:02:06.813Z,3.83
2019-06-10T17:04:35.873Z,3.95
2019-06-10T17:07:04.498Z,4.20
2019-06-10T17:09:32.826Z,4.20
2019-06-10T17:11:58.761Z,4.57
2019-06-10T17:14:27.465Z,4.55
2019-06-10T17:16:53.074Z,4.00
2019-06-10T17:19:21.268Z,4.95
2019-06-10T17:21:47.275Z,4.60
2019-06-10T17:24:14.323Z,3.95
2019-06-10T17:26:42.636Z,4.53
2019-06-10T17:29:08.853Z,4.37
2019-06-10T17:31:36.004Z,4.22
2019-06-10T17:37:04.503Z,4.62
2019-06-10T17:39:34.557Z,4.90
2019-06-10T17:42:00.302Z,4.70
2019-06-10T17:44:29.145Z,5.07
2019-06-10T17:46:54.545Z,4.95
2019-06-10T17:49:23.853Z,4.57
2019-06-10T17:51:48.910Z,4.95
2019-06-10T17:54:15.999Z,5.15
2019-06-10T17:56:43.048Z,5.07
2019-06-10T17:59:10.096Z,4.30
2019-06-10T18:01:37.839Z,4.85
2019-06-10T18:04:04.911Z,4.15
2019-06-10T18:06:34.424Z,4.35
2019-06-10T18:09:03.818Z,4.12
2019-06-10T18:11:28.303Z,3.90
2019-06-10T18:13:55.556Z,4.82
2019-06-10T18:16:24.502Z,4.62
2019-06-10T18:18:52.462Z,5.05
2019-06-10T18:21:18.240Z,4.57
2019-06-10T18:23:45.728Z,5.43
2019-06-10T18:26:12.851Z,4.93
2019-06-10T18:28:57.800Z,4.95
2019-06-10T18:31:08.675Z,7.75
2019-06-10T18:33:37.895Z,5.70
2019-06-10T18:36:03.715Z,5.78
2019-06-10T18:38:35.147Z,5.25
2019-06-10T18:41:02.989Z,5.07
2019-06-10T18:43:27.692Z,5.68
2019-06-10T18:45:56.084Z,5.25
2019-06-10T18:48:23.409Z,4.97
2019-06-10T18:50:53.318Z,5.05
2019-06-10T18:53:20.746Z,5.50
2019-06-10T18:55:47.263Z,5.45
2019-06-10T18:58:14.385Z,5.00
2019-06-10T19:00:56.928Z,5.62
2019-06-10T19:03:13.099Z,5.20
2019-06-10T19:05:36.672Z,6.03
2019-06-10T19:08:03.487Z,5.00
2019-06-10T19:10:31.727Z,5.07
2019-06-10T19:12:58.730Z,5.22
2019-06-10T19:15:29.564Z,5.37
2019-06-10T19:17:56.951Z,4.57
2019-06-10T19:20:25.902Z,5.40
2019-06-10T19:22:52.971Z,5.45
2019-06-10T19:25:20.201Z,5.32
2019-06-10T19:27:47.296Z,5.22
2019-06-10T19:30:14.442Z,5.30
2019-06-10T19:32:44.158Z,5.00
2019-06-10T19:35:08.744Z,4.82
2019-06-10T19:37:37.144Z,5.50
2019-06-10T19:40:02.956Z,5.00
2019-06-10T19:42:32.558Z,6.03
2019-06-10T19:44:57.245Z,6.10
2019-06-10T19:47:24.299Z,5.50
2019-06-10T19:49:52.198Z,5.72
2019-06-10T19:52:18.699Z,5.55
2019-06-10T19:54:46.566Z,5.18
2019-06-10T19:57:13.616Z,5.40
2019-06-10T19:59:56.038Z,5.57
2019-06-10T20:02:08.831Z,5.57
2019-06-10T20:04:36.094Z,4.93
2019-06-10T20:07:08.363Z,5.60
2019-06-10T20:09:35.997Z,5.55
2019-06-10T20:12:06.453Z,6.22
2019-06-10T20:14:36.370Z,6.20
2019-06-10T20:17:03.220Z,6.05
2019-06-10T20:19:29.750Z,6.32
2019-06-10T20:21:57.721Z,6.45
2019-06-10T20:24:24.776Z,5.82
2019-06-10T20:26:53.015Z,6.30
2019-06-10T20:29:19.175Z,5.97
2019-06-10T20:31:47.531Z,6.37
2019-06-10T20:34:14.092Z,5.78
2019-06-10T20:36:50.165Z,6.57
2019-06-10T20:39:17.302Z,6.62
2019-06-10T20:41:49.438Z,6.40
2019-06-10T20:44:13.113Z,6.62
2019-06-10T20:46:38.655Z,6.80
2019-06-10T20:49:05.700Z,6.45
2019-06-10T20:51:48.413Z,7.00
2019-06-10T20:54:02.507Z,5.85
2019-06-10T20:56:27.461Z,5.80
2019-06-10T20:58:54.508Z,7.62
2019-06-10T21:01:25.069Z,7.10
2019-06-10T21:03:49.877Z,7.62
2019-06-10T21:06:16.271Z,7.65
2019-06-10T21:08:46.768Z,7.28
2019-06-10T21:11:12.867Z,7.25
2019-06-10T21:13:39.963Z,7.95
2019-06-10T21:16:06.103Z,7.60
2019-06-10T21:18:33.296Z,8.10
2019-06-10T21:21:00.309Z,7.53
2019-06-10T21:23:27.559Z,8.43
2019-06-10T21:25:54.671Z,8.65
2019-06-10T21:28:21.764Z,8.60
2019-06-10T21:30:53.795Z,8.48
2019-06-10T21:33:15.955Z,9.02
2019-06-10T21:35:45.672Z,8.27
2019-06-10T21:38:12.288Z,8.13
2019-06-10T21:40:37.715Z,9.15
2019-06-10T21:43:04.761Z,8.75
2019-06-10T21:45:32.594Z,9.30
2019-06-10T21:47:58.966Z,9.13
2019-06-10T21:50:26.095Z,8.80
2019-06-10T21:52:53.559Z,8.10
2019-06-10T21:55:22.307Z,8.60
2019-06-10T21:57:48.761Z,9.02
2019-06-10T22:00:16.160Z,9.27
2019-06-10T22:02:44.513Z,8.63
2019-06-10T22:05:12.314Z,9.38
2019-06-10T22:07:38.020Z,9.43
2019-06-10T22:10:05.171Z,9.30
2019-06-10T22:12:33.647Z,9.75
2019-06-10T22:15:00.653Z,8.77
2019-06-10T22:17:27.748Z,9.55
2019-06-10T22:19:56.441Z,9.15
2019-06-10T22:22:22.251Z,10.55
2019-06-10T22:24:49.306Z,9.88
2019-06-10T22:27:16.350Z,9.75
2019-06-10T22:29:43.397Z,9.35
2019-06-10T22:32:12.838Z,9.82
2019-06-10T22:34:37.551Z,9.20
2019-06-10T22:37:05.158Z,9.90
2019-06-10T22:39:32.586Z,10.70
2019-06-10T22:41:59.676Z,9.50
2019-06-10T22:44:26.469Z,9.35
2019-06-10T22:46:55.209Z,9.93
2019-06-10T22:49:23.490Z,10.15
2019-06-10T22:51:48.257Z,9.57
2019-06-10T22:54:15.011Z,9.68
2019-06-10T22:56:42.448Z,9.60
2019-06-10T22:59:09.315Z,9.68
2019-06-10T23:01:38.340Z,9.77
2019-06-10T23:04:05.566Z,9.45
2019-06-10T23:06:33.978Z,10.32
2019-06-10T23:09:02.554Z,9.93
2019-06-10T23:11:27.423Z,10.00
2019-06-10T23:13:56.503Z,9.80
2019-06-10T23:16:22.286Z,10.80
2019-06-10T23:18:49.071Z,8.70
2019-06-10T23:21:16.136Z,9.90
2019-06-10T23:23:43.240Z,10.05
2019-06-10T23:26:10.330Z,10.07
2019-06-10T23:28:37.384Z,9.02
2019-06-10T23:31:06.384Z,9.07
2019-06-10T23:33:36.916Z,9.68
2019-06-10T23:36:05.594Z,9.30
2019-06-10T23:38:33.015Z,9.50
2019-06-10T23:41:00.828Z,8.48
2019-06-10T23:43:26.908Z,9.85
2019-06-10T23:45:55.131Z,9.45
2019-06-10T23:48:22.719Z,8.90
2019-06-10T23:50:52.691Z,9.20
2019-06-10T23:53:17.803Z,9.45
2019-06-10T23:55:44.847Z,8.65
2019-06-10T23:58:13.147Z,8.05
